createdAt,value
2023-06-07T00:02:26.418Z,56.04
2023-06-07T00:04:58.670Z,55.88
2023-06-07T00:07:26.822Z,55.94
2023-06-07T00:09:54.458Z,54.87
2023-06-07T00:12:21.990Z,55.66
2023-06-07T00:14:49.422Z,55.91
2023-06-07T00:17:17.169Z,55.41
2023-06-07T00:19:44.635Z,56.02
2023-06-07T00:22:14.126Z,55.70
2023-06-07T00:24:41.894Z,55.65
2023-06-07T00:27:09.390Z,55.20
2023-06-07T00:29:37.078Z,54.85
2023-06-07T00:32:05.038Z,55.96
2023-06-07T00:34:32.511Z,54.03
2023-06-07T00:36:59.997Z,54.71
2023-06-07T00:39:29.466Z,53.72
2023-06-07T00:41:57.352Z,53.00
2023-06-07T00:44:24.949Z,54.73
2023-06-07T00:46:53.530Z,53.01
2023-06-07T00:49:21.248Z,53.13
2023-06-07T00:51:48.877Z,54.25
2023-06-07T00:54:18.490Z,53.38
2023-06-07T00:56:50.907Z,54.32
2023-06-07T00:59:19.653Z,55.32
2023-06-07T01:01:49.826Z,55.20
2023-06-07T01:04:20.534Z,54.06
2023-06-07T01:06:48.208Z,53.69
2023-06-07T01:09:17.318Z,52.96
2023-06-07T01:11:48.619Z,53.24
2023-06-07T01:14:18.526Z,54.05
2023-06-07T01:16:49.737Z,54.11
2023-06-07T01:19:22.336Z,53.08
2023-06-07T01:21:51.512Z,53.58
2023-06-07T01:24:21.775Z,52.36
2023-06-07T01:26:53.915Z,52.20
2023-06-07T01:29:22.420Z,52.74
2023-06-07T01:31:51.698Z,53.89
2023-06-07T01:34:20.517Z,53.89
2023-06-07T01:36:49.748Z,54.00
2023-06-07T01:39:22.247Z,54.25
2023-06-07T01:41:52.494Z,54.34
2023-06-07T01:44:21.371Z,52.45
2023-06-07T01:46:49.285Z,53.17
2023-06-07T01:49:20.377Z,52.55
2023-06-07T01:51:47.810Z,53.28
2023-06-07T01:54:17.228Z,52.16
2023-06-07T01:56:54.345Z,52.27
2023-06-07T01:59:32.285Z,51.54
2023-06-07T02:02:06.364Z,50.95
2023-06-07T02:04:38.389Z,53.04
2023-06-07T02:07:10.652Z,51.74
2023-06-07T02:09:40.984Z,51.69
2023-06-07T02:12:12.336Z,50.97
2023-06-07T02:14:39.954Z,51.50
2023-06-07T02:17:08.618Z,50.80
2023-06-07T02:19:36.814Z,51.62
2023-06-07T02:22:04.525Z,51.78
2023-06-07T02:24:32.093Z,51.63
2023-06-07T02:26:59.552Z,51.50
2023-06-07T02:29:28.296Z,50.60
2023-06-07T02:31:59.036Z,51.29
2023-06-07T02:34:27.790Z,49.60
2023-06-07T02:36:56.450Z,49.57
2023-06-07T02:39:23.879Z,51.18
2023-06-07T02:41:51.507Z,50.06
2023-06-07T02:44:18.954Z,49.95
2023-06-07T02:46:47.724Z,50.50
2023-06-07T02:49:15.263Z,49.22
2023-06-07T02:51:43.308Z,48.91
2023-06-07T02:54:10.864Z,48.74
2023-06-07T02:56:38.353Z,49.02
2023-06-07T02:59:06.132Z,49.05
2023-06-07T03:01:34.477Z,50.01
2023-06-07T03:04:03.379Z,49.92
2023-06-07T03:06:31.044Z,49.46
2023-06-07T03:08:58.609Z,49.92
2023-06-07T03:11:26.437Z,50.13
2023-06-07T03:13:53.905Z,50.37
2023-06-07T03:16:23.586Z,50.01
2023-06-07T03:18:51.251Z,50.77
2023-06-07T03:21:20.261Z,50.71
2023-06-07T03:23:47.778Z,51.09
2023-06-07T03:26:15.335Z,50.70
2023-06-07T03:28:42.811Z,51.73
2023-06-07T03:31:10.291Z,51.64
2023-06-07T03:33:37.896Z,52.01
2023-06-07T03:36:08.779Z,50.95
2023-06-07T03:38:37.517Z,50.58
2023-06-07T03:41:04.976Z,50.57
2023-06-07T03:43:32.455Z,52.09
2023-06-07T03:45:59.942Z,52.00
2023-06-07T03:48:27.597Z,51.20
2023-06-07T03:50:55.099Z,52.12
2023-06-07T03:53:22.634Z,51.20
2023-06-07T03:55:51.601Z,50.97
2023-06-07T03:58:19.744Z,51.28
2023-06-07T04:00:49.398Z,50.21
2023-06-07T04:03:16.932Z,50.63
2023-06-07T04:05:44.542Z,48.87
2023-06-07T04:08:12.533Z,50.26
2023-06-07T04:10:42.095Z,50.39
2023-06-07T04:13:11.142Z,51.37
2023-06-07T04:15:38.696Z,51.69
2023-06-07T04:18:06.401Z,50.85
2023-06-07T04:20:33.964Z,51.32
2023-06-07T04:23:01.528Z,52.02
2023-06-07T04:25:33.607Z,51.90
2023-06-07T04:28:01.708Z,51.22
2023-06-07T04:30:35.553Z,49.07
2023-06-07T04:33:05.709Z,50.49
2023-06-07T04:35:34.806Z,49.56
2023-06-07T04:38:03.834Z,49.58
2023-06-07T04:40:31.590Z,50.18
2023-06-07T04:43:06.337Z,49.12
2023-06-07T04:45:37.672Z,49.43
2023-06-07T04:48:06.274Z,49.45
2023-06-07T04:50:34.405Z,49.33
2023-06-07T04:53:03.762Z,49.64
2023-06-07T04:55:35.285Z,49.22
2023-06-07T04:58:04.575Z,49.66
2023-06-07T05:00:32.063Z,48.87
2023-06-07T05:03:07.378Z,49.54
2023-06-07T05:05:35.015Z,47.60
2023-06-07T05:08:02.961Z,48.33
2023-06-07T05:10:30.520Z,48.21
2023-06-07T05:12:57.982Z,48.94
2023-06-07T05:15:25.900Z,48.47
2023-06-07T05:17:54.880Z,48.36
2023-06-07T05:20:25.916Z,48.69
2023-06-07T05:22:53.386Z,47.64
2023-06-07T05:25:21.255Z,47.07
2023-06-07T05:28:00.251Z,48.23
2023-06-07T05:30:38.654Z,48.09
2023-06-07T05:33:06.689Z,47.73
2023-06-07T05:35:35.584Z,46.92
2023-06-07T05:38:03.121Z,47.65
2023-06-07T05:40:30.695Z,46.56
2023-06-07T05:42:58.458Z,46.90
2023-06-07T05:45:26.384Z,46.68
2023-06-07T05:47:53.891Z,47.31
2023-06-07T05:50:22.080Z,47.93
2023-06-07T05:52:57.405Z,47.05
2023-06-07T05:55:26.624Z,46.93
2023-06-07T05:57:54.255Z,45.84
2023-06-07T06:00:22.239Z,47.31
2023-06-07T06:02:49.851Z,46.57
2023-06-07T06:05:17.827Z,46.39
2023-06-07T06:07:45.414Z,45.82
2023-06-07T06:10:14.329Z,45.18
2023-06-07T06:12:41.788Z,49.66
2023-06-07T06:15:09.799Z,52.75
2023-06-07T06:17:37.405Z,48.96
2023-06-07T06:20:05.723Z,48.87
2023-06-07T06:22:33.431Z,48.88
2023-06-07T06:25:00.969Z,49.03
2023-06-07T06:27:29.856Z,49.34
2023-06-07T06:29:57.534Z,47.61
2023-06-07T06:32:25.028Z,47.63
2023-06-07T06:34:55.117Z,48.54
2023-06-07T06:37:22.614Z,46.79
2023-06-07T06:39:52.237Z,47.45
2023-06-07T06:42:19.772Z,47.24
2023-06-07T06:44:48.618Z,46.47
2023-06-07T06:47:16.206Z,46.36
2023-06-07T06:49:43.774Z,45.90
2023-06-07T06:52:11.656Z,45.83
2023-06-07T06:54:39.117Z,46.33
2023-06-07T06:57:09.192Z,44.27
2023-06-07T06:59:38.533Z,45.59
2023-06-07T07:02:07.771Z,44.72
2023-06-07T07:04:36.055Z,43.72
2023-06-07T07:07:03.865Z,43.38
2023-06-07T07:09:32.414Z,42.90
2023-06-07T07:11:59.904Z,42.49
2023-06-07T07:14:27.426Z,43.13
2023-06-07T07:16:55.130Z,42.50
2023-06-07T07:19:24.002Z,42.94
2023-06-07T07:21:52.246Z,43.05
2023-06-07T07:24:20.088Z,43.25
2023-06-07T07:26:47.640Z,41.65
2023-06-07T07:29:15.095Z,42.07
2023-06-07T07:31:42.617Z,42.58
2023-06-07T07:34:12.197Z,42.92
2023-06-07T07:36:41.760Z,41.29
2023-06-07T07:39:09.520Z,40.49
2023-06-07T07:41:37.711Z,40.69
2023-06-07T07:44:05.455Z,41.20
2023-06-07T07:46:32.948Z,41.26
2023-06-07T07:49:00.895Z,40.84
2023-06-07T07:51:28.338Z,42.07
2023-06-07T07:53:57.908Z,41.71
2023-06-07T07:56:26.059Z,41.74
2023-06-07T07:58:53.496Z,41.33
2023-06-07T08:01:21.611Z,41.49
2023-06-07T08:03:49.521Z,41.58
2023-06-07T08:06:18.240Z,41.31
2023-06-07T08:08:47.698Z,40.54
2023-06-07T08:11:16.613Z,40.69
2023-06-07T08:13:44.134Z,41.46
2023-06-07T08:16:12.088Z,40.96
2023-06-07T08:18:40.230Z,39.81
2023-06-07T08:21:07.699Z,40.08
2023-06-07T08:23:35.221Z,39.60
2023-06-07T08:26:03.455Z,40.07
2023-06-07T08:28:32.245Z,39.49
2023-06-07T08:30:59.780Z,39.67
2023-06-07T08:33:27.321Z,40.03
2023-06-07T08:35:54.839Z,38.29
2023-06-07T08:38:22.347Z,38.21
2023-06-07T08:40:49.899Z,39.19
2023-06-07T08:43:17.491Z,39.89
2023-06-07T08:45:46.360Z,40.55
2023-06-07T08:48:15.065Z,41.01
2023-06-07T08:50:45.299Z,41.35
2023-06-07T08:53:15.948Z,41.68
2023-06-07T08:55:44.544Z,41.34
2023-06-07T08:58:13.143Z,40.73
2023-06-07T09:00:40.773Z,40.92
2023-06-07T09:03:09.664Z,40.56
2023-06-07T09:05:37.387Z,41.21
2023-06-07T09:08:05.684Z,39.95
2023-06-07T09:10:33.208Z,39.88
2023-06-07T09:13:00.681Z,39.90
2023-06-07T09:15:30.771Z,39.60
2023-06-07T09:18:01.074Z,39.89
2023-06-07T09:20:32.522Z,39.15
2023-06-07T09:23:05.528Z,39.67
2023-06-07T09:25:34.164Z,39.26
2023-06-07T09:28:04.659Z,39.11
2023-06-07T09:30:32.172Z,39.62
2023-06-07T09:32:59.682Z,39.38
2023-06-07T09:35:27.425Z,39.26
2023-06-07T09:37:56.856Z,39.29
2023-06-07T09:40:25.459Z,39.24
2023-06-07T09:43:00.910Z,39.46
2023-06-07T09:45:29.288Z,39.34
2023-06-07T09:48:04.951Z,38.07
2023-06-07T09:50:32.994Z,38.13
2023-06-07T09:53:03.086Z,38.62
2023-06-07T09:55:31.703Z,37.85
2023-06-07T09:57:59.403Z,36.92
2023-06-07T10:00:28.527Z,38.44
2023-06-07T10:03:07.178Z,38.79
2023-06-07T10:05:35.362Z,39.00
2023-06-07T10:08:05.773Z,38.60
2023-06-07T10:10:35.801Z,38.45
2023-06-07T10:13:06.100Z,37.09
2023-06-07T10:15:36.014Z,38.07
2023-06-07T10:18:13.557Z,37.73
2023-06-07T10:20:42.996Z,37.01
2023-06-07T10:23:15.926Z,37.45
2023-06-07T10:25:47.994Z,38.19
2023-06-07T10:28:21.580Z,38.16
2023-06-07T10:30:55.084Z,36.85
2023-06-07T10:33:26.306Z,36.61
2023-06-07T10:35:56.101Z,35.44
2023-06-07T10:38:25.536Z,35.93
2023-06-07T10:40:54.034Z,37.29
2023-06-07T10:43:22.645Z,36.65
2023-06-07T10:45:50.208Z,36.15
2023-06-07T10:48:35.619Z,35.66
2023-06-07T10:51:03.469Z,36.69
2023-06-07T10:53:57.331Z,36.06
2023-06-07T10:56:30.445Z,36.67
2023-06-07T10:58:59.156Z,35.26
2023-06-07T11:01:27.745Z,35.53
2023-06-07T11:03:55.582Z,35.63
2023-06-07T11:06:23.253Z,35.75
2023-06-07T11:08:51.971Z,35.28
2023-06-07T11:11:52.016Z,35.50
2023-06-07T11:14:19.646Z,35.90
2023-06-07T11:16:47.233Z,36.09
2023-06-07T11:19:18.224Z,35.88
2023-06-07T11:22:07.781Z,36.22
2023-06-07T11:24:38.073Z,36.20
2023-06-07T11:27:15.142Z,35.39
2023-06-07T11:29:44.286Z,35.16
2023-06-07T11:32:12.977Z,34.86
2023-06-07T11:34:40.596Z,35.13
2023-06-07T11:37:09.649Z,35.14
2023-06-07T11:39:37.189Z,33.75
2023-06-07T11:42:06.073Z,34.17
2023-06-07T11:44:36.391Z,34.66
2023-06-07T11:47:06.995Z,34.24
2023-06-07T11:49:38.917Z,34.90
2023-06-07T11:52:07.940Z,35.03
2023-06-07T11:54:36.465Z,34.52
2023-06-07T11:57:04.160Z,34.90
2023-06-07T11:59:32.252Z,35.04
2023-06-07T12:02:01.711Z,34.56
2023-06-07T12:04:29.384Z,34.86
2023-06-07T12:06:57.014Z,34.69
2023-06-07T12:09:24.519Z,34.60
2023-06-07T12:11:54.653Z,35.66
2023-06-07T12:14:32.494Z,35.03
2023-06-07T12:17:02.666Z,36.00
2023-06-07T12:19:30.599Z,35.91
2023-06-07T12:22:09.502Z,35.83
2023-06-07T12:24:41.085Z,35.46
2023-06-07T12:27:13.013Z,36.29
2023-06-07T12:29:41.402Z,36.88
2023-06-07T12:32:11.148Z,35.80
2023-06-07T12:34:44.396Z,35.15
2023-06-07T12:37:12.239Z,35.45
2023-06-07T12:39:39.784Z,34.44
2023-06-07T12:42:08.529Z,34.44
2023-06-07T12:44:36.184Z,34.48
2023-06-07T12:47:03.943Z,35.18
2023-06-07T12:49:32.865Z,34.69
2023-06-07T12:52:00.690Z,34.58
2023-06-07T12:54:28.288Z,35.24
2023-06-07T12:56:56.536Z,34.68
2023-06-07T12:59:23.992Z,34.83
2023-06-07T13:01:51.914Z,35.06
2023-06-07T13:04:19.424Z,33.93
2023-06-07T13:06:48.252Z,34.15
2023-06-07T13:09:15.812Z,34.31
2023-06-07T13:11:44.279Z,33.32
2023-06-07T13:14:11.826Z,33.57
2023-06-07T13:16:39.665Z,33.33
2023-06-07T13:19:07.289Z,34.03
2023-06-07T13:21:34.752Z,33.86
2023-06-07T13:24:03.665Z,35.00
2023-06-07T13:26:31.421Z,33.68
2023-06-07T13:28:58.926Z,35.21
2023-06-07T13:31:27.189Z,35.11
2023-06-07T13:33:54.681Z,34.95
2023-06-07T13:36:22.139Z,34.11
2023-06-07T13:38:49.831Z,34.20
2023-06-07T13:41:18.659Z,34.23
2023-06-07T13:44:03.456Z,35.90
2023-06-07T13:46:36.247Z,34.74
2023-06-07T13:49:03.786Z,34.90
2023-06-07T13:51:31.428Z,34.87
2023-06-07T13:53:59.312Z,33.60
2023-06-07T13:56:28.371Z,33.94
2023-06-07T13:58:59.043Z,33.39
2023-06-07T14:01:28.176Z,34.40
2023-06-07T14:03:56.693Z,35.50
2023-06-07T14:06:24.588Z,34.73
2023-06-07T14:08:52.073Z,35.22
2023-06-07T14:11:19.644Z,34.66
2023-06-07T14:13:48.497Z,34.83
2023-06-07T14:16:16.140Z,33.31
2023-06-07T14:18:43.604Z,33.27
2023-06-07T14:21:11.099Z,34.17
2023-06-07T14:23:38.635Z,34.52
2023-06-07T14:26:06.114Z,35.16
2023-06-07T14:28:33.613Z,34.38
2023-06-07T14:31:02.482Z,34.36
2023-06-07T14:33:30.056Z,34.31
2023-06-07T14:35:57.496Z,34.13
2023-06-07T14:38:24.982Z,35.57
2023-06-07T14:40:53.048Z,35.42
2023-06-07T14:43:20.562Z,35.18
2023-06-07T14:45:48.054Z,34.21
2023-06-07T14:48:16.859Z,33.01
2023-06-07T14:50:44.547Z,33.09
2023-06-07T14:53:12.114Z,33.84
2023-06-07T14:55:39.600Z,32.60
2023-06-07T14:58:07.160Z,32.52
2023-06-07T15:00:35.890Z,33.38
2023-06-07T15:03:03.644Z,34.07
2023-06-07T15:05:34.781Z,32.97
2023-06-07T15:08:04.623Z,33.94
2023-06-07T15:10:32.091Z,34.55
2023-06-07T15:13:00.033Z,35.11
2023-06-07T15:15:28.164Z,34.68
2023-06-07T15:17:57.772Z,34.57
2023-06-07T15:20:25.952Z,35.31
2023-06-07T15:22:54.849Z,34.73
2023-06-07T15:25:22.470Z,34.47
2023-06-07T15:27:49.971Z,35.18
2023-06-07T15:30:17.626Z,34.71
2023-06-07T15:32:45.199Z,34.67
2023-06-07T15:35:13.296Z,34.76
2023-06-07T15:37:41.091Z,34.39
2023-06-07T15:40:10.758Z,34.50
2023-06-07T15:42:39.306Z,34.96
2023-06-07T15:45:08.090Z,34.68
2023-06-07T15:47:35.640Z,35.15
2023-06-07T15:50:03.400Z,35.05
2023-06-07T15:52:31.175Z,34.15
2023-06-07T15:54:58.658Z,34.33
2023-06-07T15:57:27.611Z,35.08
2023-06-07T16:00:04.652Z,35.17
2023-06-07T16:02:32.426Z,35.35
2023-06-07T16:05:33.612Z,35.29
2023-06-07T16:11:29.896Z,35.04
2023-06-07T16:13:58.694Z,35.76
2023-06-07T16:16:29.291Z,35.97
2023-06-07T16:19:10.535Z,35.80
2023-06-07T16:21:39.418Z,34.66
2023-06-07T16:24:13.136Z,35.34
2023-06-07T16:26:40.995Z,36.16
2023-06-07T16:29:09.907Z,35.17
2023-06-07T16:31:41.043Z,35.30
2023-06-07T16:34:08.549Z,36.03
2023-06-07T16:36:38.498Z,36.31
2023-06-07T16:39:06.954Z,35.96
2023-06-07T16:41:37.037Z,35.87
2023-06-07T16:44:05.939Z,36.04
2023-06-07T16:46:34.829Z,35.70
2023-06-07T16:49:02.363Z,35.49
2023-06-07T16:51:29.809Z,36.24
2023-06-07T16:53:57.281Z,36.36
2023-06-07T16:56:24.751Z,36.12
2023-06-07T16:58:52.211Z,36.11
2023-06-07T17:01:19.717Z,35.97
2023-06-07T17:03:48.654Z,36.09
2023-06-07T17:06:17.262Z,35.96
2023-06-07T17:08:46.363Z,36.48
2023-06-07T17:11:16.186Z,36.14
2023-06-07T17:13:44.982Z,35.87
2023-06-07T17:16:13.725Z,36.23
2023-06-07T17:18:41.301Z,36.47
2023-06-07T17:21:10.901Z,36.28
2023-06-07T17:23:38.369Z,35.84
2023-06-07T17:26:07.692Z,36.19
2023-06-07T17:28:43.408Z,36.73
2023-06-07T17:31:10.937Z,36.70
2023-06-07T17:33:41.647Z,37.07
2023-06-07T17:36:11.114Z,36.56
2023-06-07T17:38:38.777Z,36.63
2023-06-07T17:41:06.400Z,36.61
2023-06-07T17:43:33.876Z,36.85
2023-06-07T17:46:01.408Z,37.12
2023-06-07T17:48:29.031Z,37.28
2023-06-07T17:50:56.496Z,36.81
2023-06-07T17:53:25.364Z,37.32
2023-06-07T17:55:52.850Z,37.32
2023-06-07T17:58:20.552Z,37.33
2023-06-07T18:00:48.082Z,37.98
2023-06-07T18:03:20.381Z,37.59
2023-06-07T18:05:48.064Z,37.40
2023-06-07T18:08:15.852Z,37.72
2023-06-07T18:10:45.186Z,37.40
2023-06-07T18:13:12.627Z,37.17
2023-06-07T18:15:40.133Z,37.29
2023-06-07T18:18:07.799Z,37.65
2023-06-07T18:20:36.051Z,36.98
2023-06-07T18:23:06.063Z,37.13
2023-06-07T18:25:33.650Z,37.63
2023-06-07T18:28:02.464Z,37.28
2023-06-07T18:30:30.240Z,37.81
2023-06-07T18:32:58.324Z,38.35
2023-06-07T18:35:26.041Z,38.50
2023-06-07T18:37:53.560Z,38.78
2023-06-07T18:40:23.793Z,38.81
2023-06-07T18:42:51.286Z,39.22
2023-06-07T18:45:25.501Z,39.62
2023-06-07T18:47:53.636Z,40.24
2023-06-07T18:50:21.729Z,41.12
2023-06-07T18:52:49.269Z,40.87
2023-06-07T18:55:16.740Z,41.51
2023-06-07T18:57:44.235Z,40.92
2023-06-07T19:00:12.793Z,41.17
2023-06-07T19:02:42.307Z,41.71
2023-06-07T19:05:10.475Z,42.02
2023-06-07T19:07:38.238Z,42.74
2023-06-07T19:10:06.369Z,43.37
2023-06-07T19:12:33.980Z,43.37
2023-06-07T19:15:01.635Z,42.79
2023-06-07T19:17:29.244Z,41.74
2023-06-07T19:20:00.523Z,43.63
2023-06-07T19:22:28.333Z,43.97
2023-06-07T19:24:55.886Z,43.72
2023-06-07T19:27:28.253Z,43.38
2023-06-07T19:29:55.961Z,43.32
2023-06-07T19:32:23.621Z,43.43
2023-06-07T19:34:54.094Z,43.27
2023-06-07T19:37:23.377Z,42.57
2023-06-07T19:39:51.082Z,42.50
2023-06-07T19:42:21.013Z,42.51
2023-06-07T19:44:50.548Z,41.64
2023-06-07T19:47:32.300Z,40.99
2023-06-07T19:49:59.892Z,40.30
2023-06-07T19:52:28.925Z,42.00
2023-06-07T19:54:56.686Z,41.52
2023-06-07T19:57:24.540Z,40.40
2023-06-07T19:59:52.124Z,40.78
2023-06-07T20:02:19.693Z,40.71
2023-06-07T20:04:47.796Z,41.66
2023-06-07T20:07:15.400Z,41.27
2023-06-07T20:09:44.357Z,42.16
2023-06-07T20:12:12.958Z,41.55
2023-06-07T20:14:41.099Z,41.83
2023-06-07T20:17:10.417Z,41.04
2023-06-07T20:19:38.408Z,42.24
2023-06-07T20:22:06.707Z,41.93
2023-06-07T20:24:34.315Z,41.31
2023-06-07T20:27:05.237Z,41.91
2023-06-07T20:29:32.743Z,41.50
2023-06-07T20:32:02.872Z,40.81
2023-06-07T20:34:30.674Z,42.42
2023-06-07T20:36:58.203Z,42.44
2023-06-07T20:39:25.803Z,43.31
2023-06-07T20:41:53.475Z,42.64
2023-06-07T20:44:22.343Z,42.17
2023-06-07T20:46:50.061Z,42.58
2023-06-07T20:49:17.576Z,42.86
2023-06-07T20:51:45.132Z,43.26
2023-06-07T20:54:12.735Z,42.89
2023-06-07T20:56:40.308Z,42.59
2023-06-07T20:59:08.481Z,42.83
2023-06-07T21:01:37.973Z,44.00
2023-06-07T21:04:06.416Z,42.62
2023-06-07T21:06:34.239Z,42.87
2023-06-07T21:09:01.901Z,42.83
2023-06-07T21:11:29.415Z,43.01
2023-06-07T21:13:56.962Z,41.85
2023-06-07T21:16:24.624Z,43.15
2023-06-07T21:18:53.420Z,42.48
2023-06-07T21:21:20.981Z,43.85
2023-06-07T21:23:48.629Z,44.20
2023-06-07T21:26:16.243Z,44.32
2023-06-07T21:28:43.946Z,42.31
2023-06-07T21:31:11.489Z,43.28
2023-06-07T21:33:39.231Z,44.18
2023-06-07T21:36:08.439Z,44.04
2023-06-07T21:38:35.970Z,43.12
2023-06-07T21:41:03.492Z,43.87
2023-06-07T21:43:31.037Z,45.10
2023-06-07T21:45:58.722Z,44.48
2023-06-07T21:48:26.258Z,44.75
2023-06-07T21:50:53.817Z,45.28
2023-06-07T21:53:22.793Z,44.79
2023-06-07T21:55:50.830Z,44.60
2023-06-07T21:58:18.324Z,45.61
2023-06-07T22:00:46.988Z,45.50
2023-06-07T22:03:14.574Z,46.16
2023-06-07T22:05:42.066Z,44.54
2023-06-07T22:08:10.090Z,44.91
2023-06-07T22:10:40.152Z,45.67
2023-06-07T22:13:07.683Z,45.16
2023-06-07T22:15:35.240Z,45.91
2023-06-07T22:18:04.649Z,44.67
2023-06-07T22:20:33.779Z,45.49
2023-06-07T22:23:02.435Z,44.29
2023-06-07T22:25:39.991Z,45.38
2023-06-07T22:28:13.576Z,45.69
2023-06-07T22:30:42.359Z,45.16
2023-06-07T22:33:10.679Z,44.89
2023-06-07T22:35:40.610Z,44.64
2023-06-07T22:38:13.304Z,46.06
2023-06-07T22:40:41.841Z,44.92
2023-06-07T22:43:10.854Z,45.89
2023-06-07T22:45:38.635Z,43.94
2023-06-07T22:48:10.494Z,45.15
2023-06-07T22:50:39.555Z,45.63
2023-06-07T22:53:08.345Z,45.49
2023-06-07T22:55:36.936Z,45.43
2023-06-07T22:58:06.129Z,45.57
2023-06-07T23:00:36.485Z,44.85
2023-06-07T23:03:04.929Z,45.09
2023-06-07T23:05:33.640Z,45.38
2023-06-07T23:08:01.200Z,45.16
2023-06-07T23:10:36.269Z,44.51
2023-06-07T23:13:09.279Z,45.70
2023-06-07T23:15:43.364Z,45.70
2023-06-07T23:18:12.327Z,46.09
2023-06-07T23:20:42.041Z,47.13
2023-06-07T23:23:11.120Z,46.36
2023-06-07T23:25:39.042Z,45.66
2023-06-07T23:28:07.099Z,46.38
2023-06-07T23:30:35.394Z,46.14
2023-06-07T23:33:04.662Z,46.55
2023-06-07T23:35:32.254Z,45.72
2023-06-07T23:38:00.808Z,45.65
2023-06-07T23:40:28.582Z,46.71
2023-06-07T23:42:57.495Z,46.44
2023-06-07T23:45:25.432Z,46.61
2023-06-07T23:47:53.040Z,46.35
2023-06-07T23:50:21.946Z,46.39
2023-06-07T23:52:49.424Z,46.45
2023-06-07T23:55:16.922Z,46.23
2023-06-07T23:57:44.410Z,46.41
